West Unity, OH

6:47 AM EDT on October 02, 2014 (GMT -0400)
Esystems | Change Station
CLOSE
Current Station
Personal Weather Station
Location: Bryan, OH
Elevation: 795 ft
Nearby Weather Stations

Elev 795 ft 41.50 °N, 84.56 °W | Updated 1 minute ago

Clear
Clear
49.4 °F
Feels Like 49 °F
N
0.0
Wind Variable Wind from ESE

Today
High -- | Low -- °F
--% Chance of Precip.
Yesterday
High -- | Low -- °F
Precip. -- in
7:35 AM 7:17 PM
First Quarter, 57% visible
Pressure 30.01 in
Visibility 6.0 miles
Clouds Clear
Windchill 49 °F
Dew Point 48 °F
Humidity 96%
Rainfall 0.00 in
Snow Depth Not available.
UV 0 out of 12
Pollen 2.40 out of 12
Air Quality Not available.
Flu Activity Not available.
METAR KDFI 020953Z AUTO 10004KT 6SM BR CLR 11/09 A3000 RMK AO2 SLP160 T01060089

More Conditions Fewer Conditions

Pressure 30.01 in
Visibility 6.0 miles
Clouds Clear
Windchill 49 °F
Dew Point 48 °F
Humidity 96%
Rainfall 0.00 in
Snow Depth Not available.
UV 0 out of 12
Pollen 2.40 out of 12
Air Quality Not available.
Flu Activity Not available.
METAR KDFI 020953Z AUTO 10004KT 6SM BR CLR 11/09 A3000 RMK AO2 SLP160 T01060089

More Conditions Fewer Conditions

10-Day Weather Forecast

Almanac

Astronomy

Oct. 02, 2014 Rise Set
Actual Time 7:35 AM EDT 7:17 PM EDT
Civil Twilight 7:07 AM EDT 7:45 PM EDT
Nautical Twilight 6:35 AM EDT 8:17 PM EDT
Astronomical Twilight 6:03 AM EDT 8:49 PM EDT
Moon 3:27 PM EDT 12:47 AM EDT
Length of Visible Light 12h 37m
Length of Day
11h 42m
Tomorrow will be 2m 45s shorter.
First Quarter, 57% of the Moon is Illuminated
Today
First Quarter
Oct 8
Full
Oct 15
Last Quarter
Oct 23
New
Oct 30
First Quarter

Today's Extremes

State Highs State Lows

Community

WunderPhotos

Upload Photos

1,758,210 photos uploaded!

WunderBlogs® & News

Nearby

Snow Depth

Station Depth Elevation
No new snow has been reported.

Earthquake Activity

City Distance Mag. Time & Date
No recent earthquake activity has been reported nearby.
Minimum magnitude displayed is 2.5.

Coastal Water Temperatures

Place Temperature
No Stations Reporting

Nearby Weather Stations